sensor_id;sensor_type;location;lat;lon;timestamp;P1;durP1;ratioP1;P2;durP2;ratioP2
55224;SDS011;41091;49.400;8.684;2023-01-23T00:00:00;7.78;;;5.95;;
55224;SDS011;41091;49.400;8.684;2023-01-23T00:02:28;8.18;;;6.32;;
55224;SDS011;41091;49.400;8.684;2023-01-23T00:04:54;6.93;;;6.15;;
55224;SDS011;41091;49.400;8.684;2023-01-23T00:07:22;10.77;;;7.00;;
55224;SDS011;41091;49.400;8.684;2023-01-23T00:09:49;7.30;;;5.78;;
55224;SDS011;41091;49.400;8.684;2023-01-23T00:12:15;8.73;;;6.70;;
55224;SDS011;41091;49.400;8.684;2023-01-23T00:14:40;10.13;;;6.47;;
55224;SDS011;41091;49.400;8.684;2023-01-23T00:17:08;7.68;;;5.95;;
55224;SDS011;41091;49.400;8.684;2023-01-23T00:19:33;9.75;;;7.50;;
55224;SDS011;41091;49.400;8.684;2023-01-23T00:21:59;7.47;;;6.38;;
55224;SDS011;41091;49.400;8.684;2023-01-23T00:24:25;9.73;;;6.20;;
55224;SDS011;41091;49.400;8.684;2023-01-23T00:26:50;7.53;;;5.68;;
55224;SDS011;41091;49.400;8.684;2023-01-23T00:29:16;6.05;;;5.45;;
55224;SDS011;41091;49.400;8.684;2023-01-23T00:31:43;8.23;;;5.80;;
55224;SDS011;41091;49.400;8.684;2023-01-23T00:34:10;7.80;;;6.53;;
55224;SDS011;41091;49.400;8.684;2023-01-23T00:36:38;10.20;;;7.00;;
55224;SDS011;41091;49.400;8.684;2023-01-23T00:39:05;8.07;;;6.18;;
55224;SDS011;41091;49.400;8.684;2023-01-23T00:41:33;9.60;;;6.88;;
55224;SDS011;41091;49.400;8.684;2023-01-23T00:44:01;9.20;;;7.05;;
55224;SDS011;41091;49.400;8.684;2023-01-23T00:46:26;14.20;;;7.40;;
55224;SDS011;41091;49.400;8.684;2023-01-23T00:48:51;6.57;;;6.00;;
55224;SDS011;41091;49.400;8.684;2023-01-23T00:51:17;9.18;;;6.45;;
55224;SDS011;41091;49.400;8.684;2023-01-23T00:53:43;10.57;;;6.53;;
55224;SDS011;41091;49.400;8.684;2023-01-23T00:56:08;8.68;;;6.38;;
55224;SDS011;41091;49.400;8.684;2023-01-23T00:58:36;6.75;;;6.05;;
55224;SDS011;41091;49.400;8.684;2023-01-23T01:01:01;12.02;;;6.10;;
55224;SDS011;41091;49.400;8.684;2023-01-23T01:03:27;7.20;;;6.05;;
55224;SDS011;41091;49.400;8.684;2023-01-23T01:05:52;8.43;;;6.72;;
55224;SDS011;41091;49.400;8.684;2023-01-23T01:08:18;5.93;;;5.22;;
55224;SDS011;41091;49.400;8.684;2023-01-23T01:10:43;8.95;;;5.68;;
55224;SDS011;41091;49.400;8.684;2023-01-23T01:13:08;8.43;;;6.30;;
55224;SDS011;41091;49.400;8.684;2023-01-23T01:15:34;6.80;;;6.13;;
55224;SDS011;41091;49.400;8.684;2023-01-23T01:18:00;7.57;;;5.68;;
55224;SDS011;41091;49.400;8.684;2023-01-23T01:20:28;12.23;;;6.80;;
55224;SDS011;41091;49.400;8.684;2023-01-23T01:22:54;10.35;;;6.90;;
55224;SDS011;41091;49.400;8.684;2023-01-23T01:25:21;10.10;;;6.15;;
55224;SDS011;41091;49.400;8.684;2023-01-23T01:27:52;12.07;;;5.95;;
55224;SDS011;41091;49.400;8.684;2023-01-23T01:30:20;7.18;;;6.47;;
55224;SDS011;41091;49.400;8.684;2023-01-23T01:32:51;8.15;;;6.70;;
55224;SDS011;41091;49.400;8.684;2023-01-23T01:35:19;11.63;;;6.78;;
55224;SDS011;41091;49.400;8.684;2023-01-23T01:37:45;6.28;;;5.70;;
55224;SDS011;41091;49.400;8.684;2023-01-23T01:40:12;8.98;;;6.72;;
55224;SDS011;41091;49.400;8.684;2023-01-23T01:42:46;6.63;;;5.60;;
55224;SDS011;41091;49.400;8.684;2023-01-23T01:48:16;7.63;;;5.75;;
55224;SDS011;41091;49.400;8.684;2023-01-23T01:50:42;7.43;;;6.50;;
55224;SDS011;41091;49.400;8.684;2023-01-23T01:53:10;9.05;;;6.45;;
55224;SDS011;41091;49.400;8.684;2023-01-23T01:55:35;8.80;;;5.75;;
55224;SDS011;41091;49.400;8.684;2023-01-23T01:58:01;7.03;;;5.55;;
55224;SDS011;41091;49.400;8.684;2023-01-23T02:00:29;7.78;;;5.40;;
55224;SDS011;41091;49.400;8.684;2023-01-23T02:03:04;4.95;;;4.55;;
55224;SDS011;41091;49.400;8.684;2023-01-23T02:05:31;8.15;;;6.13;;
55224;SDS011;41091;49.400;8.684;2023-01-23T02:10:45;6.03;;;5.43;;
55224;SDS011;41091;49.400;8.684;2023-01-23T02:13:35;5.85;;;5.28;;
55224;SDS011;41091;49.400;8.684;2023-01-23T02:16:08;9.25;;;5.90;;
55224;SDS011;41091;49.400;8.684;2023-01-23T02:18:36;9.50;;;6.97;;
55224;SDS011;41091;49.400;8.684;2023-01-23T02:21:04;7.97;;;6.50;;
55224;SDS011;41091;49.400;8.684;2023-01-23T02:26:21;7.40;;;5.63;;
55224;SDS011;41091;49.400;8.684;2023-01-23T02:28:50;6.10;;;5.30;;
55224;SDS011;41091;49.400;8.684;2023-01-23T02:31:19;10.20;;;6.07;;
55224;SDS011;41091;49.400;8.684;2023-01-23T02:33:47;6.68;;;6.05;;
55224;SDS011;41091;49.400;8.684;2023-01-23T02:36:15;6.15;;;5.07;;
55224;SDS011;41091;49.400;8.684;2023-01-23T02:39:26;6.93;;;5.70;;
55224;SDS011;41091;49.400;8.684;2023-01-23T02:41:41;7.63;;;5.22;;
55224;SDS011;41091;49.400;8.684;2023-01-23T02:44:10;9.27;;;6.05;;
55224;SDS011;41091;49.400;8.684;2023-01-23T02:46:37;8.65;;;5.65;;
55224;SDS011;41091;49.400;8.684;2023-01-23T02:49:03;6.75;;;6.07;;
55224;SDS011;41091;49.400;8.684;2023-01-23T02:51:28;5.25;;;4.75;;
55224;SDS011;41091;49.400;8.684;2023-01-23T02:53:53;5.05;;;4.65;;
55224;SDS011;41091;49.400;8.684;2023-01-23T02:56:19;7.10;;;5.15;;
55224;SDS011;41091;49.400;8.684;2023-01-23T02:58:47;4.97;;;4.57;;
55224;SDS011;41091;49.400;8.684;2023-01-23T03:01:31;5.05;;;4.55;;
55224;SDS011;41091;49.400;8.684;2023-01-23T03:03:59;5.15;;;4.43;;
55224;SDS011;41091;49.400;8.684;2023-01-23T03:06:29;5.22;;;4.75;;
55224;SDS011;41091;49.400;8.684;2023-01-23T03:09:00;5.13;;;4.47;;
55224;SDS011;41091;49.400;8.684;2023-01-23T03:11:43;4.88;;;4.35;;
55224;SDS011;41091;49.400;8.684;2023-01-23T03:14:16;5.25;;;4.75;;
55224;SDS011;41091;49.400;8.684;2023-01-23T03:16:43;4.13;;;3.78;;
55224;SDS011;41091;49.400;8.684;2023-01-23T03:19:13;6.93;;;5.05;;
55224;SDS011;41091;49.400;8.684;2023-01-23T03:21:39;4.40;;;4.03;;
55224;SDS011;41091;49.400;8.684;2023-01-23T03:24:05;4.97;;;4.53;;
55224;SDS011;41091;49.400;8.684;2023-01-23T03:26:41;4.55;;;4.15;;
55224;SDS011;41091;49.400;8.684;2023-01-23T03:29:15;7.78;;;4.78;;
55224;SDS011;41091;49.400;8.684;2023-01-23T03:31:59;4.95;;;4.47;;
55224;SDS011;41091;49.400;8.684;2023-01-23T03:34:25;4.85;;;4.13;;
55224;SDS011;41091;49.400;8.684;2023-01-23T03:36:52;6.57;;;5.03;;
55224;SDS011;41091;49.400;8.684;2023-01-23T03:39:18;4.60;;;4.20;;
55224;SDS011;41091;49.400;8.684;2023-01-23T03:42:02;5.60;;;4.38;;
55224;SDS011;41091;49.400;8.684;2023-01-23T03:44:29;7.63;;;5.07;;
55224;SDS011;41091;49.400;8.684;2023-01-23T03:46:55;4.95;;;4.50;;
55224;SDS011;41091;49.400;8.684;2023-01-23T03:49:20;7.25;;;5.57;;
55224;SDS011;41091;49.400;8.684;2023-01-23T03:51:45;5.30;;;4.80;;
55224;SDS011;41091;49.400;8.684;2023-01-23T03:54:11;7.05;;;5.03;;
55224;SDS011;41091;49.400;8.684;2023-01-23T03:56:41;6.65;;;5.50;;
55224;SDS011;41091;49.400;8.684;2023-01-23T03:59:06;8.90;;;5.95;;
55224;SDS011;41091;49.400;8.684;2023-01-23T04:01:32;9.80;;;6.10;;
55224;SDS011;41091;49.400;8.684;2023-01-23T04:03:57;12.10;;;6.57;;
55224;SDS011;41091;49.400;8.684;2023-01-23T04:06:25;6.32;;;5.45;;
55224;SDS011;41091;49.400;8.684;2023-01-23T04:08:53;6.55;;;5.68;;
55224;SDS011;41091;49.400;8.684;2023-01-23T04:11:19;7.93;;;5.55;;
55224;SDS011;41091;49.400;8.684;2023-01-23T04:13:44;7.22;;;5.35;;
55224;SDS011;41091;49.400;8.684;2023-01-23T04:16:12;7.05;;;6.03;;
55224;SDS011;41091;49.400;8.684;2023-01-23T04:18:38;8.70;;;6.22;;
55224;SDS011;41091;49.400;8.684;2023-01-23T04:21:03;9.43;;;5.80;;
55224;SDS011;41091;49.400;8.684;2023-01-23T04:23:29;8.65;;;6.65;;
55224;SDS011;41091;49.400;8.684;2023-01-23T04:25:54;9.55;;;6.40;;
55224;SDS011;41091;49.400;8.684;2023-01-23T04:28:25;7.15;;;6.30;;
55224;SDS011;41091;49.400;8.684;2023-01-23T04:30:51;9.93;;;6.95;;
55224;SDS011;41091;49.400;8.684;2023-01-23T04:33:18;7.72;;;5.80;;
55224;SDS011;41091;49.400;8.684;2023-01-23T04:35:48;9.88;;;6.80;;
55224;SDS011;41091;49.400;8.684;2023-01-23T04:38:14;9.30;;;7.15;;
55224;SDS011;41091;49.400;8.684;2023-01-23T04:40:40;6.90;;;5.90;;
55224;SDS011;41091;49.400;8.684;2023-01-23T04:43:07;11.52;;;6.40;;
55224;SDS011;41091;49.400;8.684;2023-01-23T04:48:01;6.63;;;5.37;;
55224;SDS011;41091;49.400;8.684;2023-01-23T04:50:26;10.07;;;7.03;;
55224;SDS011;41091;49.400;8.684;2023-01-23T04:52:51;9.60;;;6.47;;
55224;SDS011;41091;49.400;8.684;2023-01-23T04:55:17;6.97;;;6.13;;
55224;SDS011;41091;49.400;8.684;2023-01-23T04:57:42;7.88;;;6.32;;
55224;SDS011;41091;49.400;8.684;2023-01-23T05:00:08;9.15;;;6.00;;
55224;SDS011;41091;49.400;8.684;2023-01-23T05:02:33;9.48;;;7.40;;
55224;SDS011;41091;49.400;8.684;2023-01-23T05:05:01;12.48;;;7.28;;
55224;SDS011;41091;49.400;8.684;2023-01-23T05:07:26;8.63;;;6.53;;
55224;SDS011;41091;49.400;8.684;2023-01-23T05:09:52;13.07;;;7.72;;
55224;SDS011;41091;49.400;8.684;2023-01-23T05:12:17;9.63;;;6.95;;
55224;SDS011;41091;49.400;8.684;2023-01-23T05:14:42;9.73;;;6.72;;
55224;SDS011;41091;49.400;8.684;2023-01-23T05:17:10;7.65;;;5.65;;
55224;SDS011;41091;49.400;8.684;2023-01-23T05:19:35;6.90;;;6.20;;
55224;SDS011;41091;49.400;8.684;2023-01-23T05:22:01;10.07;;;6.53;;
55224;SDS011;41091;49.400;8.684;2023-01-23T05:24:26;7.72;;;6.63;;
55224;SDS011;41091;49.400;8.684;2023-01-23T05:26:51;9.88;;;6.45;;
55224;SDS011;41091;49.400;8.684;2023-01-23T05:29:17;9.20;;;6.70;;
55224;SDS011;41091;49.400;8.684;2023-01-23T05:31:42;9.57;;;6.50;;
55224;SDS011;41091;49.400;8.684;2023-01-23T05:34:07;8.45;;;5.80;;
55224;SDS011;41091;49.400;8.684;2023-01-23T05:36:33;6.82;;;6.20;;
55224;SDS011;41091;49.400;8.684;2023-01-23T05:39:01;7.07;;;6.22;;
55224;SDS011;41091;49.400;8.684;2023-01-23T05:41:28;15.55;;;7.60;;
55224;SDS011;41091;49.400;8.684;2023-01-23T05:43:54;8.10;;;6.35;;
55224;SDS011;41091;49.400;8.684;2023-01-23T05:46:19;8.60;;;5.90;;
55224;SDS011;41091;49.400;8.684;2023-01-23T05:48:47;5.32;;;4.22;;
55224;SDS011;41091;49.400;8.684;2023-01-23T05:53:42;6.68;;;4.95;;
55224;SDS011;41091;49.400;8.684;2023-01-23T05:56:08;7.57;;;4.43;;
55224;SDS011;41091;49.400;8.684;2023-01-23T05:58:36;4.70;;;4.13;;
55224;SDS011;41091;49.400;8.684;2023-01-23T06:01:02;6.65;;;4.40;;
55224;SDS011;41091;49.400;8.684;2023-01-23T06:03:27;5.05;;;4.55;;
55224;SDS011;41091;49.400;8.684;2023-01-23T06:05:53;4.90;;;4.25;;
55224;SDS011;41091;49.400;8.684;2023-01-23T06:08:18;4.95;;;4.38;;
55224;SDS011;41091;49.400;8.684;2023-01-23T06:10:44;7.07;;;4.10;;
55224;SDS011;41091;49.400;8.684;2023-01-23T06:13:09;5.38;;;4.78;;
55224;SDS011;41091;49.400;8.684;2023-01-23T06:15:35;5.57;;;4.57;;
55224;SDS011;41091;49.400;8.684;2023-01-23T06:18:00;4.40;;;3.92;;
55224;SDS011;41091;49.400;8.684;2023-01-23T06:20:26;6.78;;;4.65;;
55224;SDS011;41091;49.400;8.684;2023-01-23T06:22:53;7.50;;;5.22;;
55224;SDS011;41091;49.400;8.684;2023-01-23T06:25:21;7.32;;;5.00;;
55224;SDS011;41091;49.400;8.684;2023-01-23T06:27:49;5.43;;;4.50;;
55224;SDS011;41091;49.400;8.684;2023-01-23T06:30:14;7.20;;;5.82;;
55224;SDS011;41091;49.400;8.684;2023-01-23T06:32:39;8.13;;;5.28;;
55224;SDS011;41091;49.400;8.684;2023-01-23T06:35:08;5.57;;;4.75;;
55224;SDS011;41091;49.400;8.684;2023-01-23T06:37:35;9.15;;;6.32;;
55224;SDS011;41091;49.400;8.684;2023-01-23T06:40:01;8.30;;;6.07;;
55224;SDS011;41091;49.400;8.684;2023-01-23T06:42:26;8.32;;;5.75;;
55224;SDS011;41091;49.400;8.684;2023-01-23T06:44:56;8.75;;;6.05;;
55224;SDS011;41091;49.400;8.684;2023-01-23T06:47:23;9.82;;;6.72;;
55224;SDS011;41091;49.400;8.684;2023-01-23T06:49:51;10.45;;;7.10;;
55224;SDS011;41091;49.400;8.684;2023-01-23T06:52:16;8.80;;;6.10;;
55224;SDS011;41091;49.400;8.684;2023-01-23T06:54:42;8.25;;;6.45;;
55224;SDS011;41091;49.400;8.684;2023-01-23T06:57:07;7.95;;;5.78;;
55224;SDS011;41091;49.400;8.684;2023-01-23T06:59:32;12.43;;;6.95;;
55224;SDS011;41091;49.400;8.684;2023-01-23T07:01:58;8.90;;;6.30;;
55224;SDS011;41091;49.400;8.684;2023-01-23T07:04:23;9.23;;;6.13;;
55224;SDS011;41091;49.400;8.684;2023-01-23T07:06:51;9.57;;;6.47;;
55224;SDS011;41091;49.400;8.684;2023-01-23T07:09:16;6.95;;;6.25;;
55224;SDS011;41091;49.400;8.684;2023-01-23T07:11:44;8.60;;;6.28;;
55224;SDS011;41091;49.400;8.684;2023-01-23T07:14:09;8.95;;;6.95;;
55224;SDS011;41091;49.400;8.684;2023-01-23T07:16:37;7.70;;;5.93;;
55224;SDS011;41091;49.400;8.684;2023-01-23T07:19:02;8.57;;;6.35;;
55224;SDS011;41091;49.400;8.684;2023-01-23T07:21:30;8.88;;;6.05;;
55224;SDS011;41091;49.400;8.684;2023-01-23T07:23:56;8.40;;;5.57;;
55224;SDS011;41091;49.400;8.684;2023-01-23T07:26:21;9.52;;;6.43;;
55224;SDS011;41091;49.400;8.684;2023-01-23T07:28:47;13.73;;;6.30;;
55224;SDS011;41091;49.400;8.684;2023-01-23T07:31:12;9.45;;;6.75;;
55224;SDS011;41091;49.400;8.684;2023-01-23T07:33:38;10.05;;;6.55;;
55224;SDS011;41091;49.400;8.684;2023-01-23T07:36:04;17.63;;;6.00;;
55224;SDS011;41091;49.400;8.684;2023-01-23T07:38:30;11.02;;;6.70;;
55224;SDS011;41091;49.400;8.684;2023-01-23T07:40:56;11.55;;;7.13;;
55224;SDS011;41091;49.400;8.684;2023-01-23T07:43:22;10.30;;;5.32;;
55224;SDS011;41091;49.400;8.684;2023-01-23T07:45:48;8.13;;;5.55;;
55224;SDS011;41091;49.400;8.684;2023-01-23T07:48:14;10.98;;;6.70;;
55224;SDS011;41091;49.400;8.684;2023-01-23T07:50:42;8.05;;;5.72;;
55224;SDS011;41091;49.400;8.684;2023-01-23T07:53:07;7.50;;;5.85;;
55224;SDS011;41091;49.400;8.684;2023-01-23T07:55:32;10.35;;;5.97;;
55224;SDS011;41091;49.400;8.684;2023-01-23T07:57:58;8.77;;;6.18;;
55224;SDS011;41091;49.400;8.684;2023-01-23T08:00:23;8.57;;;5.85;;
55224;SDS011;41091;49.400;8.684;2023-01-23T08:02:51;8.35;;;5.30;;
55224;SDS011;41091;49.400;8.684;2023-01-23T08:05:19;11.13;;;6.38;;
55224;SDS011;41091;49.400;8.684;2023-01-23T08:07:44;8.95;;;6.53;;
55224;SDS011;41091;49.400;8.684;2023-01-23T08:10:10;12.68;;;7.00;;
55224;SDS011;41091;49.400;8.684;2023-01-23T08:12:35;10.48;;;7.03;;
55224;SDS011;41091;49.400;8.684;2023-01-23T08:15:01;10.88;;;6.47;;
55224;SDS011;41091;49.400;8.684;2023-01-23T08:17:26;9.15;;;6.47;;
55224;SDS011;41091;49.400;8.684;2023-01-23T08:19:54;10.32;;;7.38;;
55224;SDS011;41091;49.400;8.684;2023-01-23T08:22:19;11.55;;;7.32;;
55224;SDS011;41091;49.400;8.684;2023-01-23T08:24:44;12.68;;;7.60;;
55224;SDS011;41091;49.400;8.684;2023-01-23T08:27:11;12.50;;;7.07;;
55224;SDS011;41091;49.400;8.684;2023-01-23T08:29:38;10.15;;;6.43;;
55224;SDS011;41091;49.400;8.684;2023-01-23T08:32:04;10.18;;;6.32;;
55224;SDS011;41091;49.400;8.684;2023-01-23T08:34:30;14.43;;;7.40;;
55224;SDS011;41091;49.400;8.684;2023-01-23T08:36:55;14.07;;;9.05;;
55224;SDS011;41091;49.400;8.684;2023-01-23T08:39:20;13.23;;;8.13;;
55224;SDS011;41091;49.400;8.684;2023-01-23T08:41:46;16.48;;;7.95;;
55224;SDS011;41091;49.400;8.684;2023-01-23T08:44:11;13.35;;;8.05;;
55224;SDS011;41091;49.400;8.684;2023-01-23T08:46:41;12.13;;;8.18;;
55224;SDS011;41091;49.400;8.684;2023-01-23T08:49:08;11.02;;;7.45;;
55224;SDS011;41091;49.400;8.684;2023-01-23T08:51:33;14.80;;;7.53;;
55224;SDS011;41091;49.400;8.684;2023-01-23T08:54:01;11.30;;;7.30;;
55224;SDS011;41091;49.400;8.684;2023-01-23T08:56:26;12.10;;;7.63;;
55224;SDS011;41091;49.400;8.684;2023-01-23T08:58:54;9.50;;;6.75;;
55224;SDS011;41091;49.400;8.684;2023-01-23T09:01:21;8.65;;;6.35;;
55224;SDS011;41091;49.400;8.684;2023-01-23T09:03:49;9.23;;;7.00;;
55224;SDS011;41091;49.400;8.684;2023-01-23T09:06:15;9.10;;;6.72;;
55224;SDS011;41091;49.400;8.684;2023-01-23T09:08:42;9.23;;;6.25;;
55224;SDS011;41091;49.400;8.684;2023-01-23T09:11:08;10.27;;;7.07;;
55224;SDS011;41091;49.400;8.684;2023-01-23T09:13:36;7.45;;;6.20;;
55224;SDS011;41091;49.400;8.684;2023-01-23T09:16:02;9.88;;;6.35;;
55224;SDS011;41091;49.400;8.684;2023-01-23T09:18:29;8.70;;;5.18;;
55224;SDS011;41091;49.400;8.684;2023-01-23T09:20:54;11.77;;;5.90;;
55224;SDS011;41091;49.400;8.684;2023-01-23T09:23:20;7.15;;;5.57;;
55224;SDS011;41091;49.400;8.684;2023-01-23T09:25:50;8.38;;;5.55;;
55224;SDS011;41091;49.400;8.684;2023-01-23T09:28:20;11.88;;;6.20;;
55224;SDS011;41091;49.400;8.684;2023-01-23T09:30:47;6.40;;;5.70;;
55224;SDS011;41091;49.400;8.684;2023-01-23T09:33:13;6.60;;;5.88;;
55224;SDS011;41091;49.400;8.684;2023-01-23T09:35:40;8.45;;;5.55;;
55224;SDS011;41091;49.400;8.684;2023-01-23T09:38:05;7.50;;;4.85;;
55224;SDS011;41091;49.400;8.684;2023-01-23T09:40:35;7.07;;;6.00;;
55224;SDS011;41091;49.400;8.684;2023-01-23T09:46:06;6.95;;;5.03;;
55224;SDS011;41091;49.400;8.684;2023-01-23T09:48:52;11.52;;;5.45;;
55224;SDS011;41091;49.400;8.684;2023-01-23T09:51:24;5.82;;;4.80;;
55224;SDS011;41091;49.400;8.684;2023-01-23T09:53:57;6.82;;;4.72;;
55224;SDS011;41091;49.400;8.684;2023-01-23T09:56:28;8.30;;;4.85;;
55224;SDS011;41091;49.400;8.684;2023-01-23T09:58:58;9.25;;;5.18;;
55224;SDS011;41091;49.400;8.684;2023-01-23T10:01:27;5.40;;;4.50;;
55224;SDS011;41091;49.400;8.684;2023-01-23T10:03:54;6.80;;;4.47;;
55224;SDS011;41091;49.400;8.684;2023-01-23T10:06:24;9.15;;;5.80;;
55224;SDS011;41091;49.400;8.684;2023-01-23T10:13:58;6.72;;;4.97;;
55224;SDS011;41091;49.400;8.684;2023-01-23T10:16:51;6.35;;;4.90;;
55224;SDS011;41091;49.400;8.684;2023-01-23T10:25:08;5.85;;;5.20;;
55224;SDS011;41091;49.400;8.684;2023-01-23T10:27:40;5.20;;;4.75;;
55224;SDS011;41091;49.400;8.684;2023-01-23T10:30:23;5.82;;;5.03;;
55224;SDS011;41091;49.400;8.684;2023-01-23T10:32:51;8.25;;;6.03;;
55224;SDS011;41091;49.400;8.684;2023-01-23T10:35:24;7.68;;;5.90;;
55224;SDS011;41091;49.400;8.684;2023-01-23T10:40:24;7.35;;;5.63;;
55224;SDS011;41091;49.400;8.684;2023-01-23T10:43:12;7.63;;;4.72;;
55224;SDS011;41091;49.400;8.684;2023-01-23T10:45:38;10.95;;;6.05;;
55224;SDS011;41091;49.400;8.684;2023-01-23T10:48:26;8.70;;;5.60;;
55224;SDS011;41091;49.400;8.684;2023-01-23T10:50:52;6.30;;;4.65;;
55224;SDS011;41091;49.400;8.684;2023-01-23T10:53:19;8.40;;;5.78;;
55224;SDS011;41091;49.400;8.684;2023-01-23T10:55:48;6.60;;;6.00;;
55224;SDS011;41091;49.400;8.684;2023-01-23T10:58:27;8.25;;;5.88;;
55224;SDS011;41091;49.400;8.684;2023-01-23T11:00:57;6.95;;;5.05;;
55224;SDS011;41091;49.400;8.684;2023-01-23T11:05:56;7.28;;;5.00;;
55224;SDS011;41091;49.400;8.684;2023-01-23T11:11:18;9.05;;;4.53;;
55224;SDS011;41091;49.400;8.684;2023-01-23T11:16:45;5.63;;;4.90;;
55224;SDS011;41091;49.400;8.684;2023-01-23T11:19:23;6.72;;;5.00;;
55224;SDS011;41091;49.400;8.684;2023-01-23T11:22:01;7.47;;;4.95;;
55224;SDS011;41091;49.400;8.684;2023-01-23T11:24:34;8.63;;;5.32;;
55224;SDS011;41091;49.400;8.684;2023-01-23T11:30:20;7.45;;;5.60;;
55224;SDS011;41091;49.400;8.684;2023-01-23T11:32:42;7.07;;;4.95;;
55224;SDS011;41091;49.400;8.684;2023-01-23T11:35:19;7.43;;;4.97;;
55224;SDS011;41091;49.400;8.684;2023-01-23T11:37:47;5.35;;;4.85;;
55224;SDS011;41091;49.400;8.684;2023-01-23T11:40:14;10.25;;;5.80;;
55224;SDS011;41091;49.400;8.684;2023-01-23T11:42:41;7.10;;;5.15;;
55224;SDS011;41091;49.400;8.684;2023-01-23T11:53:23;5.60;;;4.97;;
55224;SDS011;41091;49.400;8.684;2023-01-23T11:58:45;8.98;;;4.55;;
55224;SDS011;41091;49.400;8.684;2023-01-23T12:01:27;8.23;;;5.40;;
55224;SDS011;41091;49.400;8.684;2023-01-23T12:07:04;5.82;;;5.10;;
55224;SDS011;41091;49.400;8.684;2023-01-23T12:09:44;9.85;;;6.28;;
55224;SDS011;41091;49.400;8.684;2023-01-23T12:20:52;8.13;;;6.18;;
55224;SDS011;41091;49.400;8.684;2023-01-23T12:26:14;5.95;;;4.15;;
55224;SDS011;41091;49.400;8.684;2023-01-23T12:42:12;9.30;;;5.47;;
55224;SDS011;41091;49.400;8.684;2023-01-23T12:44:47;5.00;;;4.50;;
55224;SDS011;41091;49.400;8.684;2023-01-23T12:47:47;5.55;;;4.35;;
55224;SDS011;41091;49.400;8.684;2023-01-23T12:50:34;9.70;;;5.95;;
55224;SDS011;41091;49.400;8.684;2023-01-23T12:53:06;7.03;;;4.65;;
55224;SDS011;41091;49.400;8.684;2023-01-23T12:58:25;5.63;;;4.72;;
55224;SDS011;41091;49.400;8.684;2023-01-23T13:06:19;7.70;;;5.00;;
55224;SDS011;41091;49.400;8.684;2023-01-23T13:11:48;8.27;;;5.22;;
55224;SDS011;41091;49.400;8.684;2023-01-23T13:16:56;6.50;;;5.43;;
55224;SDS011;41091;49.400;8.684;2023-01-23T13:32:50;8.23;;;6.20;;
55224;SDS011;41091;49.400;8.684;2023-01-23T13:38:32;9.32;;;6.50;;
55224;SDS011;41091;49.400;8.684;2023-01-23T13:49:15;6.28;;;5.35;;
55224;SDS011;41091;49.400;8.684;2023-01-23T13:52:18;7.28;;;5.40;;
55224;SDS011;41091;49.400;8.684;2023-01-23T13:55:23;6.65;;;5.20;;
55224;SDS011;41091;49.400;8.684;2023-01-23T13:58:19;10.43;;;5.38;;
55224;SDS011;41091;49.400;8.684;2023-01-23T14:00:49;7.60;;;5.10;;
55224;SDS011;41091;49.400;8.684;2023-01-23T14:03:57;7.15;;;5.40;;
55224;SDS011;41091;49.400;8.684;2023-01-23T14:06:50;6.03;;;5.18;;
55224;SDS011;41091;49.400;8.684;2023-01-23T14:09:33;5.68;;;4.95;;
55224;SDS011;41091;49.400;8.684;2023-01-23T14:12:04;6.72;;;5.00;;
55224;SDS011;41091;49.400;8.684;2023-01-23T14:14:33;6.07;;;5.05;;
55224;SDS011;41091;49.400;8.684;2023-01-23T14:17:18;8.23;;;4.90;;
55224;SDS011;41091;49.400;8.684;2023-01-23T14:19:56;7.43;;;5.10;;
55224;SDS011;41091;49.400;8.684;2023-01-23T14:22:26;5.95;;;5.15;;
55224;SDS011;41091;49.400;8.684;2023-01-23T14:24:52;4.75;;;4.28;;
55224;SDS011;41091;49.400;8.684;2023-01-23T14:27:20;4.78;;;4.38;;
55224;SDS011;41091;49.400;8.684;2023-01-23T14:32:36;5.90;;;4.68;;
55224;SDS011;41091;49.400;8.684;2023-01-23T14:35:16;4.47;;;4.10;;
55224;SDS011;41091;49.400;8.684;2023-01-23T14:37:41;5.50;;;4.75;;
55224;SDS011;41091;49.400;8.684;2023-01-23T14:40:25;5.13;;;4.70;;
55224;SDS011;41091;49.400;8.684;2023-01-23T14:42:52;8.55;;;5.15;;
55224;SDS011;41091;49.400;8.684;2023-01-23T14:45:23;5.50;;;4.85;;
55224;SDS011;41091;49.400;8.684;2023-01-23T14:47:48;5.18;;;3.85;;
55224;SDS011;41091;49.400;8.684;2023-01-23T14:50:24;5.13;;;4.45;;
55224;SDS011;41091;49.400;8.684;2023-01-23T14:52:57;5.45;;;4.95;;
55224;SDS011;41091;49.400;8.684;2023-01-23T14:55:28;4.85;;;3.97;;
55224;SDS011;41091;49.400;8.684;2023-01-23T14:57:55;3.83;;;3.53;;
55224;SDS011;41091;49.400;8.684;2023-01-23T15:00:25;5.25;;;4.25;;
55224;SDS011;41091;49.400;8.684;2023-01-23T15:02:53;7.38;;;5.15;;
55224;SDS011;41091;49.400;8.684;2023-01-23T15:15:35;5.88;;;4.90;;
55224;SDS011;41091;49.400;8.684;2023-01-23T15:18:01;4.90;;;4.28;;
55224;SDS011;41091;49.400;8.684;2023-01-23T15:20:34;5.25;;;4.43;;
55224;SDS011;41091;49.400;8.684;2023-01-23T15:25:42;6.85;;;5.10;;
55224;SDS011;41091;49.400;8.684;2023-01-23T15:33:48;6.63;;;5.13;;
55224;SDS011;41091;49.400;8.684;2023-01-23T15:38:48;7.83;;;5.10;;
55224;SDS011;41091;49.400;8.684;2023-01-23T15:41:13;6.50;;;5.30;;
55224;SDS011;41091;49.400;8.684;2023-01-23T15:43:39;7.22;;;5.63;;
55224;SDS011;41091;49.400;8.684;2023-01-23T15:46:06;5.20;;;4.80;;
55224;SDS011;41091;49.400;8.684;2023-01-23T15:48:36;6.25;;;5.65;;
55224;SDS011;41091;49.400;8.684;2023-01-23T15:51:01;6.38;;;5.65;;
55224;SDS011;41091;49.400;8.684;2023-01-23T15:53:27;5.75;;;5.22;;
55224;SDS011;41091;49.400;8.684;2023-01-23T15:55:53;7.70;;;5.85;;
55224;SDS011;41091;49.400;8.684;2023-01-23T15:58:18;9.05;;;5.30;;
55224;SDS011;41091;49.400;8.684;2023-01-23T16:00:43;8.07;;;5.78;;
55224;SDS011;41091;49.400;8.684;2023-01-23T16:03:09;7.65;;;5.00;;
55224;SDS011;41091;49.400;8.684;2023-01-23T16:05:38;8.00;;;6.07;;
55224;SDS011;41091;49.400;8.684;2023-01-23T16:08:04;8.55;;;6.05;;
55224;SDS011;41091;49.400;8.684;2023-01-23T16:10:32;7.72;;;6.20;;
55224;SDS011;41091;49.400;8.684;2023-01-23T16:12:59;5.90;;;5.07;;
55224;SDS011;41091;49.400;8.684;2023-01-23T16:15:28;8.48;;;6.13;;
55224;SDS011;41091;49.400;8.684;2023-01-23T16:17:56;9.50;;;7.07;;
55224;SDS011;41091;49.400;8.684;2023-01-23T16:20:23;9.30;;;6.40;;
55224;SDS011;41091;49.400;8.684;2023-01-23T16:22:52;8.05;;;5.90;;
55224;SDS011;41091;49.400;8.684;2023-01-23T16:25:27;11.20;;;6.78;;
55224;SDS011;41091;49.400;8.684;2023-01-23T16:27:57;6.40;;;5.80;;
55224;SDS011;41091;49.400;8.684;2023-01-23T16:30:25;7.90;;;5.82;;
55224;SDS011;41091;49.400;8.684;2023-01-23T16:32:51;7.00;;;5.10;;
55224;SDS011;41091;49.400;8.684;2023-01-23T16:35:18;9.57;;;6.10;;
55224;SDS011;41091;49.400;8.684;2023-01-23T16:37:45;16.48;;;6.82;;
55224;SDS011;41091;49.400;8.684;2023-01-23T16:40:18;8.68;;;6.68;;
55224;SDS011;41091;49.400;8.684;2023-01-23T16:42:44;8.35;;;5.53;;
55224;SDS011;41091;49.400;8.684;2023-01-23T16:45:16;10.15;;;6.18;;
55224;SDS011;41091;49.400;8.684;2023-01-23T16:47:42;6.25;;;5.53;;
55224;SDS011;41091;49.400;8.684;2023-01-23T16:50:13;11.90;;;6.43;;
55224;SDS011;41091;49.400;8.684;2023-01-23T16:52:41;7.82;;;6.45;;
55224;SDS011;41091;49.400;8.684;2023-01-23T16:55:19;10.32;;;6.93;;
55224;SDS011;41091;49.400;8.684;2023-01-23T16:57:47;10.60;;;6.60;;
55224;SDS011;41091;49.400;8.684;2023-01-23T17:00:16;10.27;;;6.88;;
55224;SDS011;41091;49.400;8.684;2023-01-23T17:02:49;10.18;;;6.75;;
55224;SDS011;41091;49.400;8.684;2023-01-23T17:05:17;16.10;;;6.85;;
55224;SDS011;41091;49.400;8.684;2023-01-23T17:07:43;10.85;;;6.97;;
55224;SDS011;41091;49.400;8.684;2023-01-23T17:10:15;12.15;;;7.47;;
55224;SDS011;41091;49.400;8.684;2023-01-23T17:12:55;13.55;;;7.72;;
55224;SDS011;41091;49.400;8.684;2023-01-23T17:17:54;11.30;;;7.80;;
55224;SDS011;41091;49.400;8.684;2023-01-23T17:20:23;10.73;;;7.32;;